sensor_id;sensor_type;location;lat;lon;timestamp;P1;durP1;ratioP1;P2;durP2;ratioP2
44446;SDS011;30152;52.066;5.358;2022-08-07T07:25:58;21.50;;;20.00;;
44446;SDS011;30152;52.066;5.358;2022-08-07T07:29:10;19.95;;;18.30;;
44446;SDS011;30152;52.066;5.358;2022-08-07T07:33:47;1999.90;;;999.90;;
44446;SDS011;30152;52.066;5.358;2022-08-07T07:36:18;1999.90;;;999.90;;
44446;SDS011;30152;52.066;5.358;2022-08-07T07:38:46;28.70;;;27.00;;
44446;SDS011;30152;52.066;5.358;2022-08-07T07:41:13;30.48;;;28.88;;
44446;SDS011;30152;52.066;5.358;2022-08-07T07:43:42;1999.90;;;999.90;;
44446;SDS011;30152;52.066;5.358;2022-08-07T07:46:09;1999.90;;;999.90;;
44446;SDS011;30152;52.066;5.358;2022-08-07T07:48:35;1999.90;;;999.90;;
44446;SDS011;30152;52.066;5.358;2022-08-07T07:51:03;1999.90;;;999.90;;
44446;SDS011;30152;52.066;5.358;2022-08-07T07:53:30;1999.90;;;999.90;;
44446;SDS011;30152;52.066;5.358;2022-08-07T07:55:58;1999.90;;;999.90;;
44446;SDS011;30152;52.066;5.358;2022-08-07T07:58:26;1999.90;;;999.90;;
44446;SDS011;30152;52.066;5.358;2022-08-07T08:00:54;1999.90;;;999.90;;
44446;SDS011;30152;52.066;5.358;2022-08-07T08:03:22;1999.90;;;999.90;;
44446;SDS011;30152;52.066;5.358;2022-08-07T08:05:48;1999.90;;;999.90;;
44446;SDS011;30152;52.066;5.358;2022-08-07T08:08:14;1999.90;;;999.90;;
44446;SDS011;30152;52.066;5.358;2022-08-07T08:10:40;1999.90;;;999.90;;
44446;SDS011;30152;52.066;5.358;2022-08-07T08:13:07;1999.90;;;999.90;;
44446;SDS011;30152;52.066;5.358;2022-08-07T08:15:35;1999.90;;;999.90;;
44446;SDS011;30152;52.066;5.358;2022-08-07T08:18:04;1999.90;;;999.90;;
44446;SDS011;30152;52.066;5.358;2022-08-07T08:20:33;1999.90;;;999.90;;
44446;SDS011;30152;52.066;5.358;2022-08-07T08:22:59;1999.90;;;999.90;;
44446;SDS011;30152;52.066;5.358;2022-08-07T08:25:46;1999.90;;;999.90;;
44446;SDS011;30152;52.066;5.358;2022-08-07T08:28:34;1999.90;;;999.90;;
44446;SDS011;30152;52.066;5.358;2022-08-07T08:31:05;1999.90;;;999.90;;
44446;SDS011;30152;52.066;5.358;2022-08-07T08:33:34;1999.90;;;999.90;;
44446;SDS011;30152;52.066;5.358;2022-08-07T08:36:03;1999.90;;;999.90;;
44446;SDS011;30152;52.066;5.358;2022-08-07T08:38:32;1999.90;;;999.90;;
44446;SDS011;30152;52.066;5.358;2022-08-07T08:41:04;1999.90;;;999.90;;
44446;SDS011;30152;52.066;5.358;2022-08-07T08:48:39;1999.90;;;999.90;;
44446;SDS011;30152;52.066;5.358;2022-08-07T08:57:00;1999.90;;;999.90;;
44446;SDS011;30152;52.066;5.358;2022-08-07T08:59:33;8.30;;;5.30;;
44446;SDS011;30152;52.066;5.358;2022-08-07T09:02:32;40.70;;;38.67;;
44446;SDS011;30152;52.066;5.358;2022-08-07T09:08:24;25.83;;;24.33;;
44446;SDS011;30152;52.066;5.358;2022-08-07T09:21:35;1999.90;;;999.90;;
44446;SDS011;30152;52.066;5.358;2022-08-07T09:35:34;1999.90;;;999.90;;
44446;SDS011;30152;52.066;5.358;2022-08-07T09:41:37;1999.90;;;999.90;;
44446;SDS011;30152;52.066;5.358;2022-08-07T09:43:56;1999.90;;;999.90;;
44446;SDS011;30152;52.066;5.358;2022-08-07T09:49:47;1999.90;;;999.90;;
44446;SDS011;30152;52.066;5.358;2022-08-07T09:52:25;1999.90;;;999.90;;
44446;SDS011;30152;52.066;5.358;2022-08-07T10:00:23;1999.90;;;999.90;;
44446;SDS011;30152;52.066;5.358;2022-08-07T10:03:06;1999.90;;;999.90;;
44446;SDS011;30152;52.066;5.358;2022-08-07T10:28:36;1999.90;;;999.90;;
44446;SDS011;30152;52.066;5.358;2022-08-07T10:33:55;1999.90;;;999.90;;
44446;SDS011;30152;52.066;5.358;2022-08-07T10:36:24;1999.90;;;999.90;;
44446;SDS011;30152;52.066;5.358;2022-08-07T10:39:04;1999.90;;;999.90;;
44446;SDS011;30152;52.066;5.358;2022-08-07T10:41:35;1999.90;;;999.90;;
44446;SDS011;30152;52.066;5.358;2022-08-07T10:46:59;1999.90;;;999.90;;
44446;SDS011;30152;52.066;5.358;2022-08-07T10:49:39;1999.90;;;999.90;;
44446;SDS011;30152;52.066;5.358;2022-08-07T10:52:27;1999.90;;;999.90;;
44446;SDS011;30152;52.066;5.358;2022-08-07T10:55:10;1999.90;;;999.90;;
44446;SDS011;30152;52.066;5.358;2022-08-07T11:02:43;1999.90;;;999.90;;
44446;SDS011;30152;52.066;5.358;2022-08-07T11:05:54;1999.90;;;999.90;;
44446;SDS011;30152;52.066;5.358;2022-08-07T11:08:19;1999.90;;;999.90;;
44446;SDS011;30152;52.066;5.358;2022-08-07T11:10:51;1999.90;;;999.90;;
44446;SDS011;30152;52.066;5.358;2022-08-07T11:13:31;1999.90;;;999.90;;
44446;SDS011;30152;52.066;5.358;2022-08-07T11:16:05;1999.90;;;999.90;;
44446;SDS011;30152;52.066;5.358;2022-08-07T11:18:53;1999.90;;;999.90;;
44446;SDS011;30152;52.066;5.358;2022-08-07T11:27:01;1999.90;;;999.90;;
44446;SDS011;30152;52.066;5.358;2022-08-07T11:29:37;1999.90;;;999.90;;
44446;SDS011;30152;52.066;5.358;2022-08-07T11:32:22;1999.90;;;999.90;;
44446;SDS011;30152;52.066;5.358;2022-08-07T11:34:58;1999.90;;;999.90;;
44446;SDS011;30152;52.066;5.358;2022-08-07T11:43:15;1999.90;;;999.90;;
44446;SDS011;30152;52.066;5.358;2022-08-07T11:48:56;1999.90;;;999.90;;
44446;SDS011;30152;52.066;5.358;2022-08-07T11:52:03;1999.90;;;999.90;;
44446;SDS011;30152;52.066;5.358;2022-08-07T11:54:49;1999.90;;;999.90;;
44446;SDS011;30152;52.066;5.358;2022-08-07T11:57:40;1999.90;;;999.90;;
44446;SDS011;30152;52.066;5.358;2022-08-07T12:00:37;1999.90;;;999.90;;
44446;SDS011;30152;52.066;5.358;2022-08-07T12:03:23;1999.90;;;999.90;;
44446;SDS011;30152;52.066;5.358;2022-08-07T12:05:57;1999.90;;;999.90;;
44446;SDS011;30152;52.066;5.358;2022-08-07T12:08:32;1999.90;;;999.90;;
44446;SDS011;30152;52.066;5.358;2022-08-07T12:13:26;1999.90;;;999.90;;
44446;SDS011;30152;52.066;5.358;2022-08-07T12:15:56;1999.90;;;999.90;;
44446;SDS011;30152;52.066;5.358;2022-08-07T12:18:25;1999.90;;;999.90;;
44446;SDS011;30152;52.066;5.358;2022-08-07T12:31:23;1999.90;;;999.90;;
44446;SDS011;30152;52.066;5.358;2022-08-07T12:33:51;1999.90;;;999.90;;
44446;SDS011;30152;52.066;5.358;2022-08-07T12:36:18;1999.90;;;999.90;;
44446;SDS011;30152;52.066;5.358;2022-08-07T12:38:44;1999.90;;;999.90;;
44446;SDS011;30152;52.066;5.358;2022-08-07T12:41:12;1999.90;;;999.90;;
44446;SDS011;30152;52.066;5.358;2022-08-07T12:43:39;1999.90;;;999.90;;
44446;SDS011;30152;52.066;5.358;2022-08-07T12:51:25;1999.90;;;999.90;;
44446;SDS011;30152;52.066;5.358;2022-08-07T12:54:11;1999.90;;;999.90;;
44446;SDS011;30152;52.066;5.358;2022-08-07T12:56:41;1999.90;;;999.90;;
44446;SDS011;30152;52.066;5.358;2022-08-07T12:59:10;1999.90;;;999.90;;
44446;SDS011;30152;52.066;5.358;2022-08-07T13:04:27;1999.90;;;999.90;;
44446;SDS011;30152;52.066;5.358;2022-08-07T13:17:41;1999.90;;;999.90;;
44446;SDS011;30152;52.066;5.358;2022-08-07T13:20:14;1999.90;;;999.90;;
44446;SDS011;30152;52.066;5.358;2022-08-07T13:22:44;1999.90;;;999.90;;
44446;SDS011;30152;52.066;5.358;2022-08-07T13:25:16;1999.90;;;999.90;;
44446;SDS011;30152;52.066;5.358;2022-08-07T13:27:46;1999.90;;;999.90;;
44446;SDS011;30152;52.066;5.358;2022-08-07T13:30:13;1999.90;;;999.90;;
44446;SDS011;30152;52.066;5.358;2022-08-07T13:35:17;1999.90;;;999.90;;
44446;SDS011;30152;52.066;5.358;2022-08-07T13:40:32;1999.90;;;999.90;;
44446;SDS011;30152;52.066;5.358;2022-08-07T13:43:06;1999.90;;;999.90;;
44446;SDS011;30152;52.066;5.358;2022-08-07T13:45:34;1999.90;;;999.90;;
44446;SDS011;30152;52.066;5.358;2022-08-07T13:48:02;1999.90;;;999.90;;
44446;SDS011;30152;52.066;5.358;2022-08-07T13:50:29;1999.90;;;999.90;;
44446;SDS011;30152;52.066;5.358;2022-08-07T13:52:55;1999.90;;;999.90;;
44446;SDS011;30152;52.066;5.358;2022-08-07T13:55:22;1999.90;;;999.90;;
44446;SDS011;30152;52.066;5.358;2022-08-07T13:57:51;1999.90;;;999.90;;
44446;SDS011;30152;52.066;5.358;2022-08-07T14:00:17;1999.90;;;999.90;;
44446;SDS011;30152;52.066;5.358;2022-08-07T14:02:43;1999.90;;;999.90;;
44446;SDS011;30152;52.066;5.358;2022-08-07T14:05:12;1999.90;;;999.90;;
44446;SDS011;30152;52.066;5.358;2022-08-07T14:07:42;1999.90;;;999.90;;
44446;SDS011;30152;52.066;5.358;2022-08-07T14:10:09;1999.90;;;999.90;;
44446;SDS011;30152;52.066;5.358;2022-08-07T14:12:48;1999.90;;;999.90;;
44446;SDS011;30152;52.066;5.358;2022-08-07T14:17:45;1999.90;;;999.90;;
44446;SDS011;30152;52.066;5.358;2022-08-07T14:20:15;1999.90;;;999.90;;
44446;SDS011;30152;52.066;5.358;2022-08-07T14:22:43;1999.90;;;999.90;;
44446;SDS011;30152;52.066;5.358;2022-08-07T14:25:12;1999.90;;;999.90;;
44446;SDS011;30152;52.066;5.358;2022-08-07T14:27:45;1999.90;;;999.90;;
44446;SDS011;30152;52.066;5.358;2022-08-07T14:30:12;1999.90;;;999.90;;
44446;SDS011;30152;52.066;5.358;2022-08-07T14:32:39;1999.90;;;999.90;;
44446;SDS011;30152;52.066;5.358;2022-08-07T14:35:07;1999.90;;;999.90;;
44446;SDS011;30152;52.066;5.358;2022-08-07T14:37:34;10.43;;;9.82;;
44446;SDS011;30152;52.066;5.358;2022-08-07T14:40:00;48.95;;;46.00;;
44446;SDS011;30152;52.066;5.358;2022-08-07T14:42:27;71.57;;;55.03;;
44446;SDS011;30152;52.066;5.358;2022-08-07T14:44:56;1999.90;;;999.90;;
44446;SDS011;30152;52.066;5.358;2022-08-07T14:47:23;1999.90;;;999.90;;
44446;SDS011;30152;52.066;5.358;2022-08-07T14:49:49;1999.90;;;999.90;;
44446;SDS011;30152;52.066;5.358;2022-08-07T14:52:17;535.33;;;279.15;;
44446;SDS011;30152;52.066;5.358;2022-08-07T14:54:44;1999.90;;;999.90;;
44446;SDS011;30152;52.066;5.358;2022-08-07T14:57:13;1999.90;;;999.90;;
44446;SDS011;30152;52.066;5.358;2022-08-07T14:59:40;1999.90;;;999.90;;
44446;SDS011;30152;52.066;5.358;2022-08-07T15:02:10;19.75;;;14.10;;
44446;SDS011;30152;52.066;5.358;2022-08-07T15:04:40;176.20;;;14.32;;
44446;SDS011;30152;52.066;5.358;2022-08-07T15:07:07;6.13;;;1.38;;
44446;SDS011;30152;52.066;5.358;2022-08-07T15:09:37;3.88;;;1.50;;
44446;SDS011;30152;52.066;5.358;2022-08-07T15:12:05;497.98;;;49.33;;
44446;SDS011;30152;52.066;5.358;2022-08-07T15:14:32;5.18;;;1.58;;
44446;SDS011;30152;52.066;5.358;2022-08-07T15:17:00;73.03;;;10.68;;
44446;SDS011;30152;52.066;5.358;2022-08-07T15:19:28;5.18;;;1.55;;
44446;SDS011;30152;52.066;5.358;2022-08-07T15:21:55;113.72;;;11.45;;
44446;SDS011;30152;52.066;5.358;2022-08-07T15:24:24;4.57;;;1.65;;
44446;SDS011;30152;52.066;5.358;2022-08-07T15:26:58;4.65;;;1.65;;
44446;SDS011;30152;52.066;5.358;2022-08-07T15:29:36;5.10;;;1.85;;
44446;SDS011;30152;52.066;5.358;2022-08-07T15:32:02;5.15;;;1.52;;
44446;SDS011;30152;52.066;5.358;2022-08-07T15:34:34;3.85;;;1.40;;
44446;SDS011;30152;52.066;5.358;2022-08-07T15:37:04;4.47;;;1.58;;
44446;SDS011;30152;52.066;5.358;2022-08-07T15:39:35;5.78;;;1.65;;
44446;SDS011;30152;52.066;5.358;2022-08-07T15:42:04;5.28;;;1.88;;
44446;SDS011;30152;52.066;5.358;2022-08-07T15:44:41;5.20;;;1.50;;
44446;SDS011;30152;52.066;5.358;2022-08-07T15:47:08;6.90;;;2.03;;
44446;SDS011;30152;52.066;5.358;2022-08-07T15:49:34;4.32;;;1.52;;
44446;SDS011;30152;52.066;5.358;2022-08-07T15:52:01;4.25;;;1.70;;
44446;SDS011;30152;52.066;5.358;2022-08-07T15:54:35;3.85;;;1.45;;
44446;SDS011;30152;52.066;5.358;2022-08-07T15:59:27;6.35;;;1.90;;
44446;SDS011;30152;52.066;5.358;2022-08-07T16:01:54;5.90;;;1.50;;
44446;SDS011;30152;52.066;5.358;2022-08-07T16:04:25;4.30;;;2.00;;
44446;SDS011;30152;52.066;5.358;2022-08-07T16:06:57;5.03;;;1.80;;
44446;SDS011;30152;52.066;5.358;2022-08-07T16:09:28;5.40;;;2.05;;
44446;SDS011;30152;52.066;5.358;2022-08-07T16:14:41;4.03;;;1.88;;
44446;SDS011;30152;52.066;5.358;2022-08-07T16:20:01;5.20;;;1.98;;
44446;SDS011;30152;52.066;5.358;2022-08-07T16:25:27;5.97;;;2.20;;
44446;SDS011;30152;52.066;5.358;2022-08-07T16:30:48;98.25;;;35.55;;
44446;SDS011;30152;52.066;5.358;2022-08-07T16:33:15;5.30;;;3.20;;
44446;SDS011;30152;52.066;5.358;2022-08-07T16:35:45;6.57;;;2.15;;
44446;SDS011;30152;52.066;5.358;2022-08-07T16:41:06;6.65;;;2.28;;
44446;SDS011;30152;52.066;5.358;2022-08-07T16:43:42;8.23;;;2.13;;
44446;SDS011;30152;52.066;5.358;2022-08-07T16:49:01;4.93;;;1.90;;
44446;SDS011;30152;52.066;5.358;2022-08-07T16:56:33;5.03;;;1.80;;
44446;SDS011;30152;52.066;5.358;2022-08-07T17:07:00;5.93;;;2.50;;
44446;SDS011;30152;52.066;5.358;2022-08-07T17:12:08;7.60;;;2.03;;
44446;SDS011;30152;52.066;5.358;2022-08-07T17:17:27;6.68;;;2.55;;
44446;SDS011;30152;52.066;5.358;2022-08-07T17:19:59;8.40;;;2.20;;
44446;SDS011;30152;52.066;5.358;2022-08-07T17:22:37;6.50;;;2.33;;
44446;SDS011;30152;52.066;5.358;2022-08-07T17:25:15;6.40;;;1.90;;
44446;SDS011;30152;52.066;5.358;2022-08-07T17:30:12;6.88;;;2.33;;
44446;SDS011;30152;52.066;5.358;2022-08-07T17:35:06;6.15;;;2.30;;
44446;SDS011;30152;52.066;5.358;2022-08-07T17:37:34;6.85;;;2.28;;
44446;SDS011;30152;52.066;5.358;2022-08-07T17:40:13;9.38;;;2.60;;
44446;SDS011;30152;52.066;5.358;2022-08-07T17:42:57;7.80;;;3.38;;
44446;SDS011;30152;52.066;5.358;2022-08-07T17:45:26;5.43;;;2.25;;
44446;SDS011;30152;52.066;5.358;2022-08-07T17:48:04;6.22;;;2.80;;
44446;SDS011;30152;52.066;5.358;2022-08-07T17:50:49;13.48;;;3.03;;
44446;SDS011;30152;52.066;5.358;2022-08-07T17:53:29;7.65;;;2.80;;
44446;SDS011;30152;52.066;5.358;2022-08-07T17:56:07;7.28;;;2.85;;
44446;SDS011;30152;52.066;5.358;2022-08-07T17:58:36;8.05;;;2.75;;
44446;SDS011;30152;52.066;5.358;2022-08-07T18:01:09;5.80;;;2.60;;
44446;SDS011;30152;52.066;5.358;2022-08-07T18:06:30;8.68;;;2.95;;
44446;SDS011;30152;52.066;5.358;2022-08-07T18:08:58;6.22;;;2.95;;
44446;SDS011;30152;52.066;5.358;2022-08-07T18:11:30;9.07;;;2.78;;
44446;SDS011;30152;52.066;5.358;2022-08-07T18:14:17;6.95;;;2.80;;
44446;SDS011;30152;52.066;5.358;2022-08-07T18:16:53;6.43;;;2.78;;
44446;SDS011;30152;52.066;5.358;2022-08-07T18:21:48;4.68;;;2.55;;
44446;SDS011;30152;52.066;5.358;2022-08-07T18:24:19;4.57;;;2.30;;
44446;SDS011;30152;52.066;5.358;2022-08-07T18:26:56;7.95;;;3.00;;
44446;SDS011;30152;52.066;5.358;2022-08-07T18:29:36;5.80;;;2.60;;
44446;SDS011;30152;52.066;5.358;2022-08-07T18:37:45;8.88;;;2.70;;
44446;SDS011;30152;52.066;5.358;2022-08-07T18:40:23;8.48;;;2.78;;
44446;SDS011;30152;52.066;5.358;2022-08-07T18:43:08;10.43;;;4.00;;
44446;SDS011;30152;52.066;5.358;2022-08-07T18:45:56;8.88;;;4.10;;
44446;SDS011;30152;52.066;5.358;2022-08-07T18:48:36;9.57;;;3.58;;
44446;SDS011;30152;52.066;5.358;2022-08-07T18:56:13;1999.90;;;999.90;;
44446;SDS011;30152;52.066;5.358;2022-08-07T18:58:44;1999.90;;;999.90;;
44446;SDS011;30152;52.066;5.358;2022-08-07T19:01:27;1999.90;;;999.90;;
44446;SDS011;30152;52.066;5.358;2022-08-07T19:06:42;1999.90;;;999.90;;
44446;SDS011;30152;52.066;5.358;2022-08-07T19:09:18;1999.90;;;999.90;;
44446;SDS011;30152;52.066;5.358;2022-08-07T19:17:05;1999.90;;;999.90;;
44446;SDS011;30152;52.066;5.358;2022-08-07T19:22:20;1999.90;;;999.90;;
44446;SDS011;30152;52.066;5.358;2022-08-07T19:24:49;1999.90;;;999.90;;
44446;SDS011;30152;52.066;5.358;2022-08-07T19:27:19;1999.90;;;999.90;;
44446;SDS011;30152;52.066;5.358;2022-08-07T19:29:56;1999.90;;;999.90;;
44446;SDS011;30152;52.066;5.358;2022-08-07T19:32:25;1999.90;;;999.90;;
44446;SDS011;30152;52.066;5.358;2022-08-07T19:34:52;1999.90;;;999.90;;
44446;SDS011;30152;52.066;5.358;2022-08-07T19:37:23;1999.90;;;999.90;;
44446;SDS011;30152;52.066;5.358;2022-08-07T19:39:57;1999.90;;;999.90;;
44446;SDS011;30152;52.066;5.358;2022-08-07T19:42:25;1999.90;;;999.90;;
44446;SDS011;30152;52.066;5.358;2022-08-07T19:44:52;1999.90;;;999.90;;
44446;SDS011;30152;52.066;5.358;2022-08-07T19:47:21;1999.90;;;999.90;;
44446;SDS011;30152;52.066;5.358;2022-08-07T19:49:54;1999.90;;;999.90;;
44446;SDS011;30152;52.066;5.358;2022-08-07T19:52:23;1999.90;;;999.90;;
44446;SDS011;30152;52.066;5.358;2022-08-07T19:54:50;1999.90;;;999.90;;
44446;SDS011;30152;52.066;5.358;2022-08-07T19:57:17;1999.90;;;999.90;;
44446;SDS011;30152;52.066;5.358;2022-08-07T19:59:48;1999.90;;;999.90;;
44446;SDS011;30152;52.066;5.358;2022-08-07T20:02:22;1999.90;;;999.90;;
44446;SDS011;30152;52.066;5.358;2022-08-07T20:04:49;1999.90;;;999.90;;
44446;SDS011;30152;52.066;5.358;2022-08-07T20:07:17;1999.90;;;999.90;;
44446;SDS011;30152;52.066;5.358;2022-08-07T20:09:48;1999.90;;;999.90;;
44446;SDS011;30152;52.066;5.358;2022-08-07T20:12:18;1999.90;;;999.90;;
44446;SDS011;30152;52.066;5.358;2022-08-07T20:14:45;1999.90;;;999.90;;
44446;SDS011;30152;52.066;5.358;2022-08-07T20:17:13;1999.90;;;999.90;;
44446;SDS011;30152;52.066;5.358;2022-08-07T20:19:40;1999.90;;;999.90;;
44446;SDS011;30152;52.066;5.358;2022-08-07T20:22:08;1045.50;;;542.85;;
44446;SDS011;30152;52.066;5.358;2022-08-07T20:24:36;5.00;;;1.85;;
44446;SDS011;30152;52.066;5.358;2022-08-07T20:27:04;4.40;;;1.80;;
44446;SDS011;30152;52.066;5.358;2022-08-07T20:29:40;5.68;;;2.13;;
44446;SDS011;30152;52.066;5.358;2022-08-07T20:32:07;5.35;;;2.03;;
44446;SDS011;30152;52.066;5.358;2022-08-07T20:34:34;5.13;;;2.08;;
44446;SDS011;30152;52.066;5.358;2022-08-07T20:37:00;5.40;;;2.33;;
44446;SDS011;30152;52.066;5.358;2022-08-07T20:39:30;3.90;;;1.48;;
44446;SDS011;30152;52.066;5.358;2022-08-07T20:41:58;5.07;;;1.80;;
44446;SDS011;30152;52.066;5.358;2022-08-07T20:44:28;5.32;;;1.90;;
44446;SDS011;30152;52.066;5.358;2022-08-07T20:46:55;5.82;;;2.15;;
44446;SDS011;30152;52.066;5.358;2022-08-07T20:49:23;4.70;;;1.67;;
44446;SDS011;30152;52.066;5.358;2022-08-07T20:51:50;5.00;;;2.00;;
44446;SDS011;30152;52.066;5.358;2022-08-07T20:54:17;5.45;;;2.15;;
44446;SDS011;30152;52.066;5.358;2022-08-07T20:56:47;8.15;;;2.20;;
44446;SDS011;30152;52.066;5.358;2022-08-07T20:59:15;6.53;;;1.98;;
44446;SDS011;30152;52.066;5.358;2022-08-07T21:01:42;7.60;;;1.88;;
44446;SDS011;30152;52.066;5.358;2022-08-07T21:04:10;5.13;;;1.63;;
44446;SDS011;30152;52.066;5.358;2022-08-07T21:06:36;4.65;;;1.50;;
44446;SDS011;30152;52.066;5.358;2022-08-07T21:11:32;8.73;;;1.83;;
44446;SDS011;30152;52.066;5.358;2022-08-07T21:13:59;4.18;;;1.63;;
44446;SDS011;30152;52.066;5.358;2022-08-07T21:16:29;5.57;;;1.88;;
44446;SDS011;30152;52.066;5.358;2022-08-07T21:18:58;7.45;;;1.58;;
44446;SDS011;30152;52.066;5.358;2022-08-07T21:21:27;5.70;;;2.08;;
44446;SDS011;30152;52.066;5.358;2022-08-07T21:29:14;5.07;;;1.90;;
44446;SDS011;30152;52.066;5.358;2022-08-07T21:31:43;3.50;;;1.55;;
44446;SDS011;30152;52.066;5.358;2022-08-07T21:45:00;7.03;;;1.67;;
44446;SDS011;30152;52.066;5.358;2022-08-07T21:47:35;5.22;;;1.67;;
44446;SDS011;30152;52.066;5.358;2022-08-07T21:50:16;4.30;;;1.80;;
44446;SDS011;30152;52.066;5.358;2022-08-07T21:52:55;4.63;;;2.15;;
44446;SDS011;30152;52.066;5.358;2022-08-07T21:55:24;4.90;;;2.08;;
44446;SDS011;30152;52.066;5.358;2022-08-07T21:58:08;6.63;;;2.72;;
44446;SDS011;30152;52.066;5.358;2022-08-07T22:00:37;6.53;;;2.05;;
